Time;durP1;ratioP1;P1;durP2;ratioP2;P2;SDS_P1;SDS_P2;PMS_P1;PMS_P2;Temp;Humidity;BMP_temperature;BMP_pressure;BME280_temperature;BME280_humidity;BME280_pressure;Samples;Min_cycle;Max_cycle;Signal;HPM_P1;HPM_P2
2022/10/10 00:00:35;;;;;;;;;;;;;;;13.71;62.76;100458.63;5053019;28;19927;-88
2022/10/10 00:03:01;;;;;;;;;;;;;;;13.67;62.86;100463.13;5052849;28;19917;-89
2022/10/10 00:05:26;;;;;;;;;;;;;;;13.63;63.52;100456.09;5051503;28;19960;-89
2022/10/10 00:07:51;;;;;;;;;;;;;;;13.29;64.48;100459.22;5052839;28;20023;-90
2022/10/10 00:10:17;;;;;;;;;;;;;;;13.46;64.27;100471.38;5053192;28;19916;-88
2022/10/10 00:12:42;;;;;;;;;;;;;;;13.24;65.37;100467.22;5053564;28;20294;-88
2022/10/10 00:15:08;;;;;;;;;;;;;;;13.23;66.09;100477.84;5052737;28;19917;-90
2022/10/10 00:17:33;;;;;;;;;;;;;;;13.25;66.09;100478.69;5051469;28;19917;-89
2022/10/10 00:19:59;;;;;;;;;;;;;;;13.11;66.31;100465.63;5051497;28;20330;-89
2022/10/10 00:22:24;;;;;;;;;;;;;;;13.04;66.82;100475.44;5052205;28;19920;-89
2022/10/10 00:24:49;;;;;;;;;;;;;;;12.96;67.04;100472.00;5052643;28;19952;-89
2022/10/10 00:27:18;;;;;;;;;;;;;;;13.30;66.46;100482.16;5052534;28;19924;-89
2022/10/10 00:29:44;;;;;;;;;;;;;;;13.13;66.54;100477.09;5051845;28;19959;-90
2022/10/10 00:32:09;;;;;;;;;;;;;;;13.16;66.59;100471.75;5050438;28;19948;-91
2022/10/10 00:34:34;;;;;;;;;;;;;;;13.14;66.99;100483.25;5051414;28;20015;-89
2022/10/10 00:36:59;;;;;;;;;;;;;;;13.00;68.01;100484.31;5051703;28;19916;-89
2022/10/10 00:39:25;;;;;;;;;;;;;;;13.26;66.86;100496.34;5052133;28;19920;-89
2022/10/10 00:41:50;;;;;;;;;;;;;;;13.32;66.75;100498.91;5052598;28;20371;-89
2022/10/10 00:44:16;;;;;;;;;;;;;;;13.42;66.41;100505.00;5052026;28;19917;-89
2022/10/10 00:46:41;;;;;;;;;;;;;;;13.35;66.11;100512.16;5051768;28;20386;-90
2022/10/10 00:49:13;;;;;;;;;;;;;;;13.31;65.98;100504.22;5052058;28;19912;-89
2022/10/10 00:51:39;;;;;;;;;;;;;;;13.35;65.92;100509.50;5052528;28;19916;-91
2022/10/10 00:54:06;;;;;;;;;;;;;;;13.59;64.92;100503.00;5051050;28;20013;-90
2022/10/10 00:56:35;;;;;;;;;;;;;;;13.46;64.92;100506.72;5051633;28;19927;-89
2022/10/10 00:59:01;;;;;;;;;;;;;;;13.50;65.39;100510.19;5051805;28;19912;-89
2022/10/10 01:01:28;;;;;;;;;;;;;;;13.55;65.09;100503.06;5052036;28;20306;-90
2022/10/10 01:03:58;;;;;;;;;;;;;;;13.45;64.99;100509.38;5051939;28;19916;-90
2022/10/10 01:06:23;;;;;;;;;;;;;;;13.42;65.37;100510.28;5050963;28;20416;-90
2022/10/10 01:08:48;;;;;;;;;;;;;;;13.39;65.27;100502.38;5051383;28;19951;-89
2022/10/10 01:11:16;;;;;;;;;;;;;;;13.47;64.63;100508.47;5050140;28;20004;-89
2022/10/10 01:14:02;;;;;;;;;;;;;;;13.47;64.40;100512.88;5050179;28;19917;-87
2022/10/10 01:16:44;;;;;;;;;;;;;;;13.16;65.40;100508.84;5050412;28;19917;-88
2022/10/10 01:19:10;;;;;;;;;;;;;;;13.23;64.89;100507.84;5051871;28;19970;-88
2022/10/10 01:21:38;;;;;;;;;;;;;;;13.11;64.73;100512.44;5051648;28;19913;-89
2022/10/10 01:24:03;;;;;;;;;;;;;;;13.17;65.00;100504.41;5051021;28;19917;-90
2022/10/10 01:26:31;;;;;;;;;;;;;;;13.33;64.64;100513.03;5051066;28;19924;-90
2022/10/10 01:29:16;;;;;;;;;;;;;;;13.35;64.43;100508.63;5051952;28;19916;-90
2022/10/10 01:31:44;;;;;;;;;;;;;;;13.15;65.22;100517.69;5052172;28;19920;-89
2022/10/10 01:34:12;;;;;;;;;;;;;;;13.15;65.05;100525.63;5051761;28;19917;-89
2022/10/10 01:36:46;;;;;;;;;;;;;;;13.16;65.03;100518.53;5051581;28;19952;-89
2022/10/10 01:39:23;;;;;;;;;;;;;;;13.08;65.11;100516.88;5052452;28;20019;-86
2022/10/10 01:42:08;;;;;;;;;;;;;;;13.10;65.53;100519.50;5053029;28;20023;-88
2022/10/10 01:44:36;;;;;;;;;;;;;;;12.86;66.52;100523.31;5052553;28;19995;-87
2022/10/10 01:47:01;;;;;;;;;;;;;;;12.71;66.78;100522.59;5052024;28;20007;-88
2022/10/10 01:49:29;;;;;;;;;;;;;;;12.77;66.83;100521.63;5050506;28;20473;-90
2022/10/10 01:55:11;;;;;;;;;;;;;;;12.83;66.97;100528.66;5056903;28;19948;-87
2022/10/10 02:00:49;;;;;;;;;;;;;;;12.56;67.14;100536.00;5051496;28;19920;-88
2022/10/10 02:03:14;;;;;;;;;;;;;;;12.27;68.44;100539.78;5033025;28;19917;-89
2022/10/10 02:05:46;;;;;;;;;;;;;;;12.10;69.55;100537.25;5050430;28;20390;-90
2022/10/10 02:08:20;;;;;;;;;;;;;;;11.99;70.59;100544.41;5050870;28;19923;-89
2022/10/10 02:10:48;;;;;;;;;;;;;;;12.03;70.61;100548.75;5049889;28;19978;-91
2022/10/10 02:13:14;;;;;;;;;;;;;;;12.31;69.73;100551.19;5050644;28;19923;-91
2022/10/10 02:15:52;;;;;;;;;;;;;;;12.53;68.91;100549.25;5048779;28;20315;-90
2022/10/10 02:18:19;;;;;;;;;;;;;;;12.58;68.85;100547.44;5066316;28;19913;-90
2022/10/10 02:20:44;;;;;;;;;;;;;;;12.56;68.78;100549.22;5049398;28;19967;-90
2022/10/10 02:23:15;;;;;;;;;;;;;;;12.62;68.79;100549.16;5050284;28;19935;-89
2022/10/10 02:25:42;;;;;;;;;;;;;;;12.71;68.34;100556.13;5050940;28;20349;-89
2022/10/10 02:28:14;;;;;;;;;;;;;;;12.66;67.58;100553.50;5050749;28;20011;-87
2022/10/10 02:30:43;;;;;;;;;;;;;;;12.62;68.14;100553.56;5050361;28;19917;-88
2022/10/10 02:33:08;;;;;;;;;;;;;;;12.72;68.14;100560.53;5049459;28;19931;-91
2022/10/10 02:35:36;;;;;;;;;;;;;;;12.71;68.26;100556.13;5049342;28;20411;-92
2022/10/10 02:38:04;;;;;;;;;;;;;;;12.74;68.06;100561.38;5050197;28;19913;-90
2022/10/10 02:40:31;;;;;;;;;;;;;;;12.80;67.82;100555.16;5048899;28;19917;-88
2022/10/10 02:42:58;;;;;;;;;;;;;;;12.75;68.16;100559.63;5050579;28;19916;-89
2022/10/10 02:45:28;;;;;;;;;;;;;;;12.65;68.51;100558.81;5050542;28;19921;-88
2022/10/10 02:47:54;;;;;;;;;;;;;;;12.64;68.35;100562.38;5049402;28;20353;-88
2022/10/10 02:50:19;;;;;;;;;;;;;;;12.57;68.00;100561.53;5049413;28;19924;-91
2022/10/10 02:52:45;;;;;;;;;;;;;;;12.41;67.56;100566.09;5049193;28;20400;-88
2022/10/10 02:55:10;;;;;;;;;;;;;;;12.45;67.75;100567.84;5048291;28;19921;-89
2022/10/10 02:57:35;;;;;;;;;;;;;;;12.47;67.55;100568.69;5048217;28;19920;-89
2022/10/10 03:00:01;;;;;;;;;;;;;;;12.49;67.54;100564.25;5047023;28;19978;-89
2022/10/10 03:02:26;;;;;;;;;;;;;;;12.53;67.81;100560.72;5049326;28;19995;-88
2022/10/10 03:04:52;;;;;;;;;;;;;;;12.34;68.19;100569.69;5049161;28;19917;-88
2022/10/10 03:07:17;;;;;;;;;;;;;;;12.40;68.22;100569.63;5048649;28;19931;-88
2022/10/10 03:09:42;;;;;;;;;;;;;;;12.51;67.90;100572.19;5049438;28;20424;-91
2022/10/10 03:12:07;;;;;;;;;;;;;;;12.42;67.89;100572.25;5047977;28;20484;-88
2022/10/10 03:14:33;;;;;;;;;;;;;;;12.33;68.13;100568.81;5046479;28;19917;-87
2022/10/10 03:16:59;;;;;;;;;;;;;;;12.43;67.93;100579.31;5047665;28;19948;-88
2022/10/10 03:19:25;;;;;;;;;;;;;;;12.41;68.10;100581.97;5048172;28;20650;-90
2022/10/10 03:21:50;;;;;;;;;;;;;;;12.42;68.00;100575.81;5047905;28;20382;-87
2022/10/10 03:24:15;;;;;;;;;;;;;;;12.35;68.25;100577.59;5053220;28;19920;-85
2022/10/10 03:26:40;;;;;;;;;;;;;;;12.35;68.09;100577.59;5053698;28;19917;-86
2022/10/10 03:29:06;;;;;;;;;;;;;;;12.44;67.63;100581.97;5072202;28;19912;-89
2022/10/10 03:31:32;;;;;;;;;;;;;;;12.41;67.96;100581.13;5072424;28;19916;-91
2022/10/10 03:33:58;;;;;;;;;;;;;;;12.39;68.13;100582.88;5036292;28;19979;-88
2022/10/10 03:36:23;;;;;;;;;;;;;;;12.37;68.07;100582.88;5050790;28;20390;-86
2022/10/10 03:38:48;;;;;;;;;;;;;;;12.44;67.87;100589.03;5050731;28;20301;-89
2022/10/10 03:41:14;;;;;;;;;;;;;;;12.45;67.90;100591.66;5050434;28;20370;-86
2022/10/10 03:43:39;;;;;;;;;;;;;;;12.47;67.81;100586.34;5050662;28;19922;-86
2022/10/10 03:46:06;;;;;;;;;;;;;;;12.29;68.71;100582.94;5050512;28;19920;-87
2022/10/10 03:48:31;;;;;;;;;;;;;;;12.39;68.11;100590.81;5051599;28;19912;-87
2022/10/10 03:50:56;;;;;;;;;;;;;;;12.15;68.83;100596.28;5050735;28;19942;-88
2022/10/10 03:53:22;;;;;;;;;;;;;;;12.15;68.78;100593.63;5049295;28;19921;-86
2022/10/10 03:55:47;;;;;;;;;;;;;;;12.18;68.55;100593.63;5050020;28;19920;-86
2022/10/10 03:58:12;;;;;;;;;;;;;;;12.26;68.53;100596.19;5050150;28;20322;-86
2022/10/10 04:00:38;;;;;;;;;;;;;;;12.09;68.55;100591.03;5049324;28;20379;-85
2022/10/10 04:03:05;;;;;;;;;;;;;;;12.24;68.47;100586.53;5049908;28;19987;-88
2022/10/10 04:05:34;;;;;;;;;;;;;;;12.09;69.02;100587.53;5050438;28;19913;-86
2022/10/10 04:08:00;;;;;;;;;;;;;;;11.96;70.09;100592.91;5051058;28;19912;-89
2022/10/10 04:10:25;;;;;;;;;;;;;;;11.90;70.04;100595.53;5050219;28;19970;-91
2022/10/10 04:12:50;;;;;;;;;;;;;;;11.93;70.12;100597.34;5051184;28;19923;-91
2022/10/10 04:15:16;;;;;;;;;;;;;;;11.91;70.80;100597.31;5050256;28;19909;-91
2022/10/10 04:17:42;;;;;;;;;;;;;;;11.95;70.74;100603.47;5049988;28;19917;-92
2022/10/10 04:20:08;;;;;;;;;;;;;;;12.09;70.20;100600.75;5048681;28;19923;-93
2022/10/10 04:22:34;;;;;;;;;;;;;;;11.99;69.91;100606.09;5048185;28;19913;-92
2022/10/10 04:24:59;;;;;;;;;;;;;;;11.68;70.74;100607.09;5051543;28;20322;-88
2022/10/10 04:27:25;;;;;;;;;;;;;;;11.75;71.65;100603.56;5052341;28;19916;-88
2022/10/10 04:29:50;;;;;;;;;;;;;;;11.91;71.02;100612.28;5052327;28;19917;-89
2022/10/10 04:32:15;;;;;;;;;;;;;;;11.88;71.16;100607.00;5050637;28;19912;-89
2022/10/10 04:34:41;;;;;;;;;;;;;;;11.85;71.08;100609.66;5050818;28;19916;-88
2022/10/10 04:37:06;;;;;;;;;;;;;;;11.98;70.71;100614.03;5051936;28;19916;-90
2022/10/10 04:39:31;;;;;;;;;;;;;;;12.13;70.21;100615.72;5051618;28;19936;-89
2022/10/10 04:41:57;;;;;;;;;;;;;;;12.15;70.75;100621.84;5051209;28;19925;-88
2022/10/10 04:44:22;;;;;;;;;;;;;;;12.16;70.52;100618.34;5050611;28;19920;-88
2022/10/10 04:46:47;;;;;;;;;;;;;;;12.30;70.05;100620.88;5051178;28;20687;-88
2022/10/10 04:49:12;;;;;;;;;;;;;;;12.25;70.02;100622.66;5050975;28;19928;-88
2022/10/10 04:51:38;;;;;;;;;;;;;;;12.29;70.34;100617.34;5051148;28;19927;-89
2022/10/10 04:54:03;;;;;;;;;;;;;;;12.20;70.77;100614.75;5051512;28;19920;-89
2022/10/10 04:56:29;;;;;;;;;;;;;;;12.28;70.76;100622.66;5051148;28;19917;-87
2022/10/10 04:58:54;;;;;;;;;;;;;;;12.28;70.61;100626.19;5048924;28;19956;-87
2022/10/10 05:01:19;;;;;;;;;;;;;;;12.43;70.65;100625.19;5065722;28;20011;-88
2022/10/10 05:03:45;;;;;;;;;;;;;;;12.59;70.62;100631.25;5050493;28;19920;-88
2022/10/10 05:06:10;;;;;;;;;;;;;;;12.58;70.29;100628.59;5050287;28;19913;-87
2022/10/10 05:08:36;;;;;;;;;;;;;;;12.74;69.84;100632.00;5048816;28;19956;-86
2022/10/10 05:11:01;;;;;;;;;;;;;;;12.82;69.77;100631.03;5048524;28;20284;-87
2022/10/10 05:13:26;;;;;;;;;;;;;;;12.74;70.02;100635.50;5048915;28;20470;-87
2022/10/10 05:15:52;;;;;;;;;;;;;;;12.85;69.74;100635.41;5052884;28;19921;-85
2022/10/10 05:18:18;;;;;;;;;;;;;;;12.97;69.63;100640.59;5049809;28;19960;-87
2022/10/10 05:20:46;;;;;;;;;;;;;;;12.96;69.99;100648.53;5049512;28;19919;-88
2022/10/10 05:23:11;;;;;;;;;;;;;;;13.09;69.83;100655.50;5050571;28;19917;-87
2022/10/10 05:25:37;;;;;;;;;;;;;;;13.34;69.75;100658.78;5050775;28;19913;-86
2022/10/10 05:28:02;;;;;;;;;;;;;;;13.63;69.89;100659.38;5050892;28;19991;-86
2022/10/10 05:30:27;;;;;;;;;;;;;;;13.73;68.61;100667.19;5050429;28;19912;-87
2022/10/10 05:32:53;;;;;;;;;;;;;;;13.92;68.49;100666.94;5049156;28;20405;-87
2022/10/10 05:35:18;;;;;;;;;;;;;;;14.11;67.93;100667.56;5048270;28;19916;-87
2022/10/10 05:37:43;;;;;;;;;;;;;;;14.03;67.94;100670.31;5048767;28;19927;-87
2022/10/10 05:40:09;;;;;;;;;;;;;;;14.07;68.13;100669.41;5049513;28;19916;-89
2022/10/10 05:42:34;;;;;;;;;;;;;;;14.28;67.28;100668.19;5050976;28;19916;-86
2022/10/10 05:44:59;;;;;;;;;;;;;;;14.55;65.84;100670.44;5048732;28;19919;-87
2022/10/10 05:47:25;;;;;;;;;;;;;;;14.67;64.70;100676.50;5049397;28;20007;-87
2022/10/10 05:49:50;;;;;;;;;;;;;;;14.83;64.35;100679.75;5049788;28;19977;-89
2022/10/10 05:52:15;;;;;;;;;;;;;;;15.10;63.21;100680.16;5049552;28;20462;-87
2022/10/10 05:54:40;;;;;;;;;;;;;;;15.42;62.42;100676.03;5048980;28;20571;-88
2022/10/10 05:57:06;;;;;;;;;;;;;;;15.73;62.02;100691.38;5049444;28;19913;-87
2022/10/10 05:59:32;;;;;;;;;;;;;;;15.79;60.96;100688.63;5049472;28;19913;-87
2022/10/10 06:01:57;;;;;;;;;;;;;;;16.02;60.81;100698.78;5047957;28;19912;-88
2022/10/10 06:04:22;;;;;;;;;;;;;;;15.95;60.51;100702.47;5049679;28;19920;-88
2022/10/10 06:06:48;;;;;;;;;;;;;;;16.31;60.21;100696.38;5049146;28;20302;-87
2022/10/10 06:09:13;;;;;;;;;;;;;;;16.44;59.41;100703.19;5048628;28;19936;-89
2022/10/10 06:11:39;;;;;;;;;;;;;;;16.59;59.17;100710.81;5048509;28;19920;-87
2022/10/10 06:14:05;;;;;;;;;;;;;;;16.80;58.48;100703.22;5048902;28;19912;-89
2022/10/10 06:16:31;;;;;;;;;;;;;;;16.87;57.36;100706.63;5049244;28;20378;-89
2022/10/10 06:18:56;;;;;;;;;;;;;;;17.23;57.39;100710.16;5049703;28;19924;-90
2022/10/10 06:21:24;;;;;;;;;;;;;;;17.57;56.62;100709.22;5048936;28;19921;-89
2022/10/10 06:23:49;;;;;;;;;;;;;;;17.64;54.74;100700.16;5048010;28;19919;-89
2022/10/10 06:26:15;;;;;;;;;;;;;;;17.53;55.14;100700.44;5049529;28;19966;-89
2022/10/10 06:28:40;;;;;;;;;;;;;;;17.51;55.25;100702.25;5049476;28;19916;-89
2022/10/10 06:31:07;;;;;;;;;;;;;;;17.74;53.82;100703.41;5049457;28;20362;-89
2022/10/10 06:33:33;;;;;;;;;;;;;;;17.81;55.77;100698.75;5048332;28;19913;-88
2022/10/10 06:35:58;;;;;;;;;;;;;;;18.12;53.71;100690.78;5049081;28;19923;-89
2022/10/10 06:38:24;;;;;;;;;;;;;;;18.12;53.30;100695.22;5048982;28;19959;-88
2022/10/10 06:40:49;;;;;;;;;;;;;;;18.49;53.00;100702.09;5049286;28;19917;-88
2022/10/10 06:43:15;;;;;;;;;;;;;;;18.67;51.94;100697.97;5048942;28;19966;-87
2022/10/10 06:45:41;;;;;;;;;;;;;;;18.98;51.19;100694.31;5046145;28;20389;-87
2022/10/10 06:48:07;;;;;;;;;;;;;;;18.92;51.02;100690.03;5048047;28;19917;-86
2022/10/10 06:50:33;;;;;;;;;;;;;;;18.87;51.71;100692.00;5048416;28;19913;-87
2022/10/10 06:52:58;;;;;;;;;;;;;;;19.09;51.63;100693.03;5048198;28;20410;-87
2022/10/10 06:55:24;;;;;;;;;;;;;;;19.03;51.61;100689.66;5049105;28;19913;-87
2022/10/10 06:57:49;;;;;;;;;;;;;;;19.38;51.67;100692.91;5052325;28;19916;-87
2022/10/10 07:00:14;;;;;;;;;;;;;;;19.43;50.91;100690.94;5052803;28;19986;-87
2022/10/10 07:02:40;;;;;;;;;;;;;;;19.49;49.70;100688.03;5054537;28;19924;-87
2022/10/10 07:05:10;;;;;;;;;;;;;;;19.68;48.31;100691.81;5054719;28;20031;-87
2022/10/10 07:07:36;;;;;;;;;;;;;;;19.85;48.08;100698.38;5054372;28;20398;-87
2022/10/10 07:10:01;;;;;;;;;;;;;;;20.07;47.46;100693.06;5053281;28;20078;-87
2022/10/10 07:12:27;;;;;;;;;;;;;;;19.85;48.05;100704.59;5055530;28;19924;-85
2022/10/10 07:14:52;;;;;;;;;;;;;;;19.84;48.03;100694.81;5061189;28;20294;-88
2022/10/10 07:17:17;;;;;;;;;;;;;;;19.88;47.84;100700.03;5064736;28;19921;-91
2022/10/10 07:19:43;;;;;;;;;;;;;;;19.93;47.87;100700.75;5057519;28;19927;-88
2022/10/10 07:22:09;;;;;;;;;;;;;;;20.02;47.62;100693.25;5052837;28;19950;-89
2022/10/10 07:24:35;;;;;;;;;;;;;;;19.75;47.76;100702.28;5052293;28;19912;-91
2022/10/10 07:27:02;;;;;;;;;;;;;;;19.79;47.90;100696.78;5051989;28;20011;-92
2022/10/10 07:29:29;;;;;;;;;;;;;;;20.07;47.30;100702.91;5052627;28;19923;-91
2022/10/10 07:31:54;;;;;;;;;;;;;;;20.07;47.40;100701.09;5053104;28;19912;-91
2022/10/10 07:34:20;;;;;;;;;;;;;;;20.36;46.27;100696.41;5052168;28;19923;-92
2022/10/10 07:36:49;;;;;;;;;;;;;;;20.47;47.06;100702.22;5051758;28;19917;-92
2022/10/10 07:39:17;;;;;;;;;;;;;;;20.57;46.31;100698.22;5053604;28;19970;-92
2022/10/10 07:41:42;;;;;;;;;;;;;;;20.81;46.91;100690.13;5052365;28;20014;-91
2022/10/10 07:44:08;;;;;;;;;;;;;;;21.32;45.97;100696.00;5052772;28;20462;-92
2022/10/10 07:46:34;;;;;;;;;;;;;;;21.53;44.91;100690.66;5052834;28;19913;-91
2022/10/10 07:49:00;;;;;;;;;;;;;;;21.72;45.14;100690.69;5053273;28;19963;-93
2022/10/10 07:51:25;;;;;;;;;;;;;;;21.51;45.43;100689.88;5053601;28;19944;-91
2022/10/10 07:53:51;;;;;;;;;;;;;;;21.13;46.80;100693.25;5051893;28;19924;-91
2022/10/10 07:56:16;;;;;;;;;;;;;;;21.23;46.80;100688.38;5050784;28;19916;-93
2022/10/10 07:58:42;;;;;;;;;;;;;;;21.10;46.40;100691.59;5051102;28;19967;-93
2022/10/10 08:01:09;;;;;;;;;;;;;;;20.97;47.21;100689.50;5050451;28;20390;-91
2022/10/10 08:03:34;;;;;;;;;;;;;;;21.21;47.02;100683.06;5052398;28;19913;-90
2022/10/10 08:06:02;;;;;;;;;;;;;;;21.46;46.89;100687.34;5053371;28;19912;-92
2022/10/10 08:08:27;;;;;;;;;;;;;;;21.57;46.07;100686.91;5051393;28;19965;-93
2022/10/10 08:10:57;;;;;;;;;;;;;;;21.18;46.92;100688.56;5052683;28;19912;-93
2022/10/10 08:13:23;;;;;;;;;;;;;;;21.25;46.89;100694.53;5052171;28;20451;-94
2022/10/10 08:15:52;;;;;;;;;;;;;;;21.40;46.24;100690.31;5053032;28;20458;-92
2022/10/10 08:18:18;;;;;;;;;;;;;;;21.44;45.90;100689.22;5052936;28;19962;-90
2022/10/10 08:20:43;;;;;;;;;;;;;;;21.09;45.98;100695.19;5052489;28;19912;-91
2022/10/10 08:23:08;;;;;;;;;;;;;;;21.25;46.09;100687.34;5050778;28;19916;-92
2022/10/10 08:25:34;;;;;;;;;;;;;;;21.61;45.49;100685.81;5050788;28;20375;-92
2022/10/10 08:27:59;;;;;;;;;;;;;;;21.46;46.11;100688.22;5049135;28;20019;-91
2022/10/10 08:30:25;;;;;;;;;;;;;;;21.59;45.22;100691.25;5050390;28;19917;-91
2022/10/10 08:32:50;;;;;;;;;;;;;;;21.71;44.75;100687.16;5050595;28;19919;-91
2022/10/10 08:35:15;;;;;;;;;;;;;;;21.50;45.57;100685.44;5050528;28;20416;-90
2022/10/10 08:37:41;;;;;;;;;;;;;;;21.97;44.42;100682.41;5050179;28;20395;-90
2022/10/10 08:40:06;;;;;;;;;;;;;;;21.99;43.92;100680.50;5050379;28;19923;-91
2022/10/10 08:42:35;;;;;;;;;;;;;;;22.02;43.30;100671.44;5049391;28;20657;-91
2022/10/10 08:45:02;;;;;;;;;;;;;;;21.82;43.96;100675.91;5050405;28;19924;-93
2022/10/10 08:47:40;;;;;;;;;;;;;;;22.02;43.80;100674.97;5050093;28;20693;-91
2022/10/10 08:50:13;;;;;;;;;;;;;;;22.20;43.16;100677.72;5049741;28;19920;-93
2022/10/10 08:52:49;;;;;;;;;;;;;;;21.86;43.23;100673.94;5050478;28;19913;-92
2022/10/10 08:55:29;;;;;;;;;;;;;;;21.72;44.34;100670.09;5050117;28;19913;-91
2022/10/10 08:57:55;;;;;;;;;;;;;;;21.89;44.18;100672.00;5049783;28;19928;-91
2022/10/10 09:00:21;;;;;;;;;;;;;;;21.92;43.14;100671.88;5050386;28;19916;-94
2022/10/10 09:02:49;;;;;;;;;;;;;;;21.67;43.34;100674.78;5051555;28;20301;-92
2022/10/10 09:05:17;;;;;;;;;;;;;;;21.56;43.31;100669.91;5050764;28;19994;-93
2022/10/10 09:07:43;;;;;;;;;;;;;;;21.64;43.37;100670.44;5054007;28;19917;-90
2022/10/10 09:10:26;;;;;;;;;;;;;;;22.00;42.74;100658.94;5045528;28;19980;-93
2022/10/10 09:13:18;;;;;;;;;;;;;;;21.72;43.65;100666.53;5057598;28;19970;-95
2022/10/10 09:16:09;;;;;;;;;;;;;;;21.80;42.99;100664.38;5035605;28;19925;-95
2022/10/10 09:18:47;;;;;;;;;;;;;;;22.18;42.37;100659.88;5034546;28;19917;-95
2022/10/10 09:21:17;;;;;;;;;;;;;;;22.07;42.08;100659.50;5024244;28;19988;-93
2022/10/10 09:23:46;;;;;;;;;;;;;;;22.13;41.09;100661.91;5006111;28;19918;-92
2022/10/10 09:26:12;;;;;;;;;;;;;;;22.11;41.53;100658.41;5008639;28;20026;-92
2022/10/10 09:28:40;;;;;;;;;;;;;;;22.34;41.70;100661.88;4985933;28;19921;-90
2022/10/10 09:31:10;;;;;;;;;;;;;;;22.36;41.68;100657.28;5007026;28;19917;-90
2022/10/10 09:33:51;;;;;;;;;;;;;;;22.09;42.27;100657.63;5018628;28;20060;-89
2022/10/10 09:36:18;;;;;;;;;;;;;;;22.30;42.49;100655.75;5006551;28;19921;-91
2022/10/10 09:38:44;;;;;;;;;;;;;;;22.49;42.04;100652.16;5016767;28;20021;-91
2022/10/10 09:41:24;;;;;;;;;;;;;;;22.64;41.56;100654.06;5013928;28;19914;-92
2022/10/10 09:44:12;;;;;;;;;;;;;;;22.56;41.59;100648.22;5006311;28;19920;-93
2022/10/10 09:46:38;;;;;;;;;;;;;;;22.39;41.34;100640.13;4955121;28;19914;-93
2022/10/10 09:49:24;;;;;;;;;;;;;;;22.29;41.18;100637.88;5007235;28;19918;-94
2022/10/10 09:51:49;;;;;;;;;;;;;;;22.33;41.51;100635.91;5006912;28;19967;-93
2022/10/10 09:54:16;;;;;;;;;;;;;;;22.40;42.20;100629.31;5007427;28;19913;-90
2022/10/10 09:56:49;;;;;;;;;;;;;;;22.57;41.00;100628.47;5021742;28;19917;-90
2022/10/10 09:59:33;;;;;;;;;;;;;;;22.68;41.06;100633.31;5026156;28;19982;-92
2022/10/10 10:02:02;;;;;;;;;;;;;;;22.83;40.86;100623.56;5025658;28;19917;-88
2022/10/10 10:04:31;;;;;;;;;;;;;;;22.62;40.80;100621.03;5025121;28;19967;-90
2022/10/10 10:07:05;;;;;;;;;;;;;;;22.66;41.15;100611.88;5025159;28;20032;-93
2022/10/10 10:09:30;;;;;;;;;;;;;;;22.64;40.80;100621.81;5025248;28;20011;-88
2022/10/10 10:12:00;;;;;;;;;;;;;;;22.64;41.08;100613.75;5028281;28;20458;-92
2022/10/10 10:14:34;;;;;;;;;;;;;;;22.52;41.28;100609.88;5043823;28;19975;-91
2022/10/10 10:17:12;;;;;;;;;;;;;;;22.52;41.18;100608.97;5027556;28;19920;-94
2022/10/10 10:19:38;;;;;;;;;;;;;;;22.37;41.28;100604.38;5043574;28;19924;-88
2022/10/10 10:22:04;;;;;;;;;;;;;;;22.66;40.98;100608.28;5027778;28;19971;-87
2022/10/10 10:24:37;;;;;;;;;;;;;;;22.43;41.25;100604.06;5027699;28;19923;-90
2022/10/10 10:27:15;;;;;;;;;;;;;;;22.56;41.26;100609.72;5028891;28;19918;-91
2022/10/10 10:29:45;;;;;;;;;;;;;;;22.37;41.15;100604.38;5028473;28;19923;-93
2022/10/10 10:32:29;;;;;;;;;;;;;;;22.67;39.99;100605.53;5026623;28;19920;-86
2022/10/10 10:34:54;;;;;;;;;;;;;;;22.50;40.30;100603.69;5027548;28;19917;-92
2022/10/10 10:37:25;;;;;;;;;;;;;;;22.51;40.50;100593.81;5043982;28;19924;-92
2022/10/10 10:39:50;;;;;;;;;;;;;;;22.83;40.57;100593.97;5026083;28;19995;-86
2022/10/10 10:42:33;;;;;;;;;;;;;;;23.12;39.88;100594.31;5027617;28;20074;-86
2022/10/10 10:44:59;;;;;;;;;;;;;;;23.27;39.09;100582.72;5026873;28;20007;-87
2022/10/10 10:47:39;;;;;;;;;;;;;;;23.47;38.80;100570.00;5027533;28;20031;-89
2022/10/10 10:50:05;;;;;;;;;;;;;;;23.33;39.53;100576.16;5056329;28;20486;-88
2022/10/10 10:52:36;;;;;;;;;;;;;;;23.52;39.55;100571.47;5047620;28;19928;-88
2022/10/10 10:55:13;;;;;;;;;;;;;;;23.42;39.36;100581.88;5046888;28;19916;-91
2022/10/10 10:57:46;;;;;;;;;;;;;;;23.58;38.81;100570.28;5047483;28;20700;-89
2022/10/10 11:00:17;;;;;;;;;;;;;;;23.52;38.66;100565.22;5046657;28;19920;-91
2022/10/10 11:02:51;;;;;;;;;;;;;;;23.72;38.56;100559.59;5047792;28;19916;-88
2022/10/10 11:05:35;;;;;;;;;;;;;;;23.52;38.51;100559.84;5048013;28;19935;-90
2022/10/10 11:08:11;;;;;;;;;;;;;;;23.23;38.98;100562.31;5046090;28;19969;-89
2022/10/10 11:10:46;;;;;;;;;;;;;;;23.22;38.94;100557.91;5063631;28;20032;-91
2022/10/10 11:13:15;;;;;;;;;;;;;;;23.29;39.15;100550.34;5045951;28;19912;-88
2022/10/10 11:15:42;;;;;;;;;;;;;;;23.44;38.50;100538.72;5047448;28;19924;-89
2022/10/10 11:18:24;;;;;;;;;;;;;;;23.35;37.79;100540.09;5045634;28;20318;-92
2022/10/10 11:21:08;;;;;;;;;;;;;;;23.26;38.37;100553.19;5047859;28;19917;-92
2022/10/10 11:23:38;;;;;;;;;;;;;;;23.24;38.85;100547.91;5047130;28;19912;-91
2022/10/10 11:26:06;;;;;;;;;;;;;;;23.23;38.94;100547.03;5047428;28;19923;-90
2022/10/10 11:28:39;;;;;;;;;;;;;;;23.44;39.18;100543.25;5045978;28;19909;-90
2022/10/10 11:31:09;;;;;;;;;;;;;;;23.35;38.90;100540.09;5048072;28;19982;-93
2022/10/10 11:33:41;;;;;;;;;;;;;;;23.21;39.00;100546.25;5046910;28;20136;-90
2022/10/10 11:36:08;;;;;;;;;;;;;;;23.59;38.62;100534.31;5045554;28;19917;-90
2022/10/10 11:38:40;;;;;;;;;;;;;;;23.55;38.40;100535.44;5045832;28;20688;-90
2022/10/10 11:41:14;;;;;;;;;;;;;;;23.65;38.51;100542.06;5061975;28;20291;-90
2022/10/10 11:44:00;;;;;;;;;;;;;;;23.48;38.38;100539.41;5066225;28;19916;-94
2022/10/10 11:46:35;;;;;;;;;;;;;;;23.30;38.33;100535.94;5053167;28;19916;-93
2022/10/10 11:49:14;;;;;;;;;;;;;;;23.30;39.29;100533.25;5052207;28;19966;-90
2022/10/10 11:51:54;;;;;;;;;;;;;;;23.77;38.66;100529.72;5050350;28;20435;-92
2022/10/10 11:54:27;;;;;;;;;;;;;;;23.35;38.18;100536.56;5052571;28;19912;-93
2022/10/10 11:56:59;;;;;;;;;;;;;;;23.52;38.19;100532.94;5051133;28;19917;-92
2022/10/10 11:59:41;;;;;;;;;;;;;;;23.56;38.10;100527.28;5051568;28;20349;-94
2022/10/10 12:02:20;;;;;;;;;;;;;;;23.49;38.38;100527.72;5050690;28;20414;-91
2022/10/10 12:04:46;;;;;;;;;;;;;;;23.83;38.27;100517.72;5049720;28;19920;-93
2022/10/10 12:07:18;;;;;;;;;;;;;;;23.78;37.80;100520.69;5051394;28;20299;-94
2022/10/10 12:09:47;;;;;;;;;;;;;;;23.72;37.77;100518.34;5052360;28;19966;-95
2022/10/10 12:12:49;;;;;;;;;;;;;;;23.82;37.67;100515.97;5053326;28;19920;-95
2022/10/10 12:15:33;;;;;;;;;;;;;;;23.49;37.88;100517.81;5052732;28;20371;-95
2022/10/10 12:18:02;;;;;;;;;;;;;;;23.74;37.58;100508.34;5052866;28;19917;-95
2022/10/10 12:20:32;;;;;;;;;;;;;;;23.77;37.69;100509.06;5053766;28;20306;-94
2022/10/10 12:23:16;;;;;;;;;;;;;;;23.69;37.74;100505.91;5050167;28;20713;-91
2022/10/10 12:25:44;;;;;;;;;;;;;;;23.67;37.77;100502.44;5050521;28;20005;-89
2022/10/10 12:28:13;;;;;;;;;;;;;;;23.75;37.74;100499.31;5052022;28;19921;-92
2022/10/10 12:30:53;;;;;;;;;;;;;;;23.74;37.83;100495.75;5050816;28;19916;-92
2022/10/10 12:33:18;;;;;;;;;;;;;;;;;;5052662;28;19916;-92
2022/10/10 12:35:44;;;;;;;;;;;;;;;23.55;38.71;100497.75;5052236;28;20398;-89
2022/10/10 12:38:12;;;;;;;;;;;;;;;23.71;37.80;100498.63;5051624;28;19981;-91
2022/10/10 12:40:53;;;;;;;;;;;;;;;23.55;38.29;100508.53;5067532;28;19913;-92
2022/10/10 12:43:21;;;;;;;;;;;;;;;23.64;37.69;100512.53;5059565;28;20379;-89
2022/10/10 12:46:05;;;;;;;;;;;;;;;23.77;37.65;100509.06;5059483;28;19920;-89
2022/10/10 12:48:31;;;;;;;;;;;;;;;23.51;37.53;100501.56;5058743;28;19912;-94
2022/10/10 12:51:18;;;;;;;;;;;;;;;23.53;37.94;100505.91;5074389;28;19963;-93